This is the latest recevied weather packets stored in our database for station/object EA4BCR. If no packets are shown the sender has not sent any weather packets the latest 10 day(s).
| Time | Temp. | Humidity | Pressure | Rain* | Wind** | Luminosity | Snow |
|---|---|---|---|---|---|---|---|
| 1777736213 | 20° C | 57% | 1013.6 hPa | - | - | - | - |
| 1777735613 | 20.56° C | 56% | 1013.5 hPa | - | - | - | - |
| 1777735013 | 20° C | 58% | 1013.7 hPa | - | - | - | - |
| 1777734413 | 20.56° C | 57% | 1013.8 hPa | - | - | - | - |
| 1777733828 | 20.56° C | 57% | 1013.6 hPa | - | - | - | - |
| 1777733213 | 20° C | 58% | 1014.2 hPa | - | - | - | - |
| 1777732613 | 20° C | 60% | 1014.5 hPa | - | - | - | - |
| 1777732028 | 20° C | 59% | 1014.5 hPa | - | - | - | - |
| 1777731413 | 20° C | 59% | 1014.7 hPa | - | - | - | - |
| 1777730813 | 19.44° C | 61% | 1014.9 hPa | - | - | - | - |
| 1777730213 | 20° C | 60% | 1015 hPa | - | - | - | - |
| 1777729613 | 19.44° C | 60% | 1015.4 hPa | - | - | - | - |
| 1777729013 | 20° C | 58% | 1015.3 hPa | - | - | - | - |
| 1777728413 | 20° C | 60% | 1015.6 hPa | - | - | - | - |
| 1777727813 | 19.44° C | 60% | 1016.1 hPa | - | - | - | - |
| 1777727213 | 18.89° C | 64% | 1016.4 hPa | - | - | - | - |
| 1777726613 | 18.89° C | 63% | 1016.3 hPa | - | - | - | - |
| 1777726013 | 18.33° C | 67% | 1016.6 hPa | - | - | - | - |
| 1777725413 | 18.89° C | 64% | 1016.5 hPa | - | - | - | - |
| 1777724813 | 18.33° C | 65% | 1016.9 hPa | - | - | - | - |
| 1777724213 | 18.89° C | 64% | 1016.8 hPa | - | - | - | - |
| 1777723616 | 17.78° C | 65% | 1017.4 hPa | - | - | - | - |
| 1777723014 | 18.33° C | 65% | 1017.4 hPa | - | - | - | - |
| 1777722413 | 18.33° C | 67% | 1017 hPa | - | - | - | - |
| 1777721813 | 18.33° C | 66% | 1016.7 hPa | - | - | - | - |
* Rain since midnight (hover to see other rain measurements)
** Current wind speed in m/s (hover to see current wind gust speed)